Time;durP1;ratioP1;P1;durP2;ratioP2;P2;SDS_P1;SDS_P2;PMS_P1;PMS_P2;Temp;Humidity;BMP_temperature;BMP_pressure;BME280_temperature;BME280_humidity;BME280_pressure;Samples;Min_cycle;Max_cycle;Signal;HPM_P1;HPM_P2
2022/08/03 00:02:20;;;;;;;3.70;1.40;;;;;;;21.27;66.95;99871.59;5025260;28;20309;-80
2022/08/03 00:04:45;;;;;;;3.08;1.33;;;;;;;21.26;67.15;99881.84;5025191;28;20041;-80
2022/08/03 00:07:10;;;;;;;9.13;2.22;;;;;;;21.23;66.67;99879.75;5025187;28;20052;-80
2022/08/03 00:09:36;;;;;;;3.83;1.40;;;;;;;21.23;67.09;99877.00;5030707;28;20124;-80
2022/08/03 00:12:01;;;;;;;6.28;1.55;;;;;;;21.19;67.23;99873.25;5044674;28;20423;-80
2022/08/03 00:14:26;;;;;;;6.80;2.05;;;;;;;21.17;66.93;99872.78;5046064;28;20109;-85
2022/08/03 00:16:52;;;;;;;4.03;1.77;;;;;;;21.17;66.91;99872.78;5047237;28;20043;-85
2022/08/03 00:19:17;;;;;;;7.53;2.13;;;;;;;21.14;66.83;99876.22;5042102;28;20040;-85
2022/08/03 00:21:42;;;;;;;4.72;1.98;;;;;;;21.10;67.10;99863.03;5040885;28;20270;-85
2022/08/03 00:24:07;;;;;;;3.83;1.70;;;;;;;21.07;66.76;99866.47;5044980;28;20046;-81
2022/08/03 00:26:33;;;;;;;10.60;1.98;;;;;;;21.06;67.06;99867.63;5049121;28;20703;-81
2022/08/03 00:28:58;;;;;;;5.73;1.20;;;;;;;21.03;66.99;99859.16;5046459;28;20403;-82
2022/08/03 00:31:23;;;;;;;5.07;1.90;;;;;;;20.99;66.70;99857.03;5049780;28;20262;-82
2022/08/03 00:33:49;;;;;;;5.85;1.50;;;;;;;20.96;67.36;99863.25;5047859;28;20332;-80
2022/08/03 00:36:14;;;;;;;5.07;2.22;;;;;;;20.95;67.23;99860.81;5048270;28;20506;-80
2022/08/03 00:38:39;;;;;;;3.95;1.58;;;;;;;20.94;67.43;99859.16;5049082;28;20183;-81
2022/08/03 00:41:04;;;;;;;2.97;1.40;;;;;;;20.90;67.43;99853.47;5028826;28;20593;-82
2022/08/03 00:43:30;;;;;;;5.13;2.03;;;;;;;20.86;67.70;99858.88;5049518;28;20278;-88
2022/08/03 00:45:55;;;;;;;2.87;1.00;;;;;;;20.79;67.00;99853.03;5032240;28;20033;-88
2022/08/03 00:48:21;;;;;;;6.30;2.47;;;;;;;20.83;67.78;99848.44;5030050;28;20286;-85
2022/08/03 00:50:47;;;;;;;4.63;1.80;;;;;;;20.77;67.63;99850.59;5035050;28;20028;-84
2022/08/03 00:53:13;;;;;;;6.30;1.50;;;;;;;20.78;67.75;99856.97;5049969;28;20033;-81
2022/08/03 00:55:39;;;;;;;3.70;1.63;;;;;;;20.79;67.89;99858.56;5032948;28;20036;-81
2022/08/03 00:58:05;;;;;;;5.95;2.10;;;;;;;20.79;68.37;99852.25;5028802;28;20045;-81
2022/08/03 01:00:34;;;;;;;8.20;2.92;;;;;;;20.78;68.49;99851.44;5029176;28;20053;-81
2022/08/03 01:03:00;;;;;;;5.68;2.10;;;;;;;20.76;68.30;99851.75;5028667;28;20123;-83
2022/08/03 01:05:26;;;;;;;2.60;1.35;;;;;;;20.78;68.08;99851.44;5032591;28;20484;-82
2022/08/03 01:08:02;;;;;;;6.53;2.28;;;;;;;20.76;68.58;99848.16;5055904;28;20537;-88
2022/08/03 01:10:49;;;;;;;9.35;2.17;;;;;;;20.77;68.22;99844.25;5053762;28;20419;-88
2022/08/03 01:13:28;;;;;;;6.28;1.77;;;;;;;20.74;68.63;99850.47;5048527;28;20462;-80
2022/08/03 01:16:01;;;;;;;6.38;1.70;;;;;;;20.73;68.55;99843.28;5046153;28;20048;-80
2022/08/03 01:18:33;;;;;;;3.88;1.90;;;;;;;20.69;68.19;99837.59;5047545;28;20037;-81
2022/08/03 01:21:02;;;;;;;8.57;1.83;;;;;;;20.64;68.92;99837.78;5047101;28;20055;-81
2022/08/03 01:23:38;;;;;;;3.88;1.88;;;;;;;20.62;68.69;99840.09;5047716;28;20574;-81
2022/08/03 01:26:31;;;;;;;7.38;2.10;;;;;;;20.58;68.87;99845.47;5047670;28;20094;-81
2022/08/03 01:29:35;;;;;;;5.20;2.00;;;;;;;20.56;68.88;99839.44;5046620;28;20723;-81
2022/08/03 01:32:04;;;;;;;5.45;2.47;;;;;;;20.57;68.79;99838.28;5033901;28;20033;-81
2022/08/03 01:34:40;;;;;;;4.78;1.73;;;;;;;20.60;69.00;99834.88;5048493;28;20040;-84
2022/08/03 01:37:08;;;;;;;9.98;3.13;;;;;;;20.57;69.47;99835.53;5048896;28;20025;-85
2022/08/03 01:39:37;;;;;;;7.43;2.20;;;;;;;20.60;69.83;99834.88;5046651;28;20033;-80
2022/08/03 01:42:05;;;;;;;4.78;2.05;;;;;;;20.57;69.43;99832.75;5047070;28;20550;-80
2022/08/03 01:44:35;;;;;;;3.33;1.77;;;;;;;20.58;69.15;99837.16;5046959;28;20029;-80
2022/08/03 01:47:02;;;;;;;2.92;1.58;;;;;;;20.58;68.57;99837.16;5047253;28;20613;-79
2022/08/03 01:49:32;;;;;;;11.10;2.95;;;;;;;20.52;69.40;99821.88;5048477;28;20040;-88
2022/08/03 01:51:59;;;;;;;6.45;2.90;;;;;;;20.53;69.07;99823.50;5049149;28;20656;-88
2022/08/03 01:54:26;;;;;;;9.27;2.47;;;;;;;20.51;69.11;99831.31;5048245;28;20562;-80
2022/08/03 01:56:55;;;;;;;8.90;3.08;;;;;;;20.44;69.56;99825.47;5047410;28;20029;-81
2022/08/03 01:59:22;;;;;;;5.22;1.88;;;;;;;20.44;69.51;99822.72;5047720;28;20074;-84
2022/08/03 02:01:49;;;;;;;4.85;1.80;;;;;;;20.43;69.37;99824.66;5048376;28;20119;-83
2022/08/03 02:04:17;;;;;;;4.78;1.95;;;;;;;20.42;69.20;99823.84;5047658;28;20533;-83
2022/08/03 02:06:45;;;;;;;3.22;1.75;;;;;;;20.35;69.60;99822.72;5047741;28;20472;-83
2022/08/03 02:09:12;;;;;;;8.27;2.67;;;;;;;20.31;69.05;99822.59;5045899;28;20399;-83
2022/08/03 02:11:37;;;;;;;4.88;2.40;;;;;;;20.30;69.96;99819.00;5043575;28;20060;-82
2022/08/03 02:14:05;;;;;;;4.45;1.60;;;;;;;20.29;69.90;99828.47;5027003;28;20103;-81
2022/08/03 02:16:33;;;;;;;7.32;2.47;;;;;;;20.26;70.04;99825.50;5027583;28;20499;-81
2022/08/03 02:19:02;;;;;;;3.03;1.67;;;;;;;20.21;70.10;99818.22;5046399;28;20041;-83
2022/08/03 02:21:31;;;;;;;14.35;3.03;;;;;;;20.17;70.19;99820.84;5047924;28;20016;-84
2022/08/03 02:23:56;;;;;;;5.60;2.40;;;;;;;20.20;70.19;99822.09;5047140;28;20033;-80
2022/08/03 02:26:26;;;;;;;4.95;2.78;;;;;;;20.16;69.81;99819.19;5046433;28;20033;-80
2022/08/03 02:28:54;;;;;;;5.40;2.45;;;;;;;20.15;70.21;99828.66;5047092;28;20510;-83
2022/08/03 02:31:23;;;;;;;3.80;1.58;;;;;;;20.17;70.33;99823.59;5047977;28;20025;-84
2022/08/03 02:33:54;;;;;;;4.60;2.05;;;;;;;20.11;70.30;99822.16;5046372;28;20037;-80
2022/08/03 02:36:25;;;;;;;9.60;2.63;;;;;;;20.16;70.56;99827.50;5046774;28;20060;-80
2022/08/03 02:38:54;;;;;;;6.68;2.05;;;;;;;20.15;70.32;99825.88;5047354;28;20037;-86
2022/08/03 02:41:23;;;;;;;3.80;2.03;;;;;;;20.15;70.63;99822.28;5047394;28;20497;-86
2022/08/03 02:43:52;;;;;;;5.82;2.33;;;;;;;20.11;70.66;99813.84;5047940;28;20326;-84
2022/08/03 02:46:21;;;;;;;6.97;2.25;;;;;;;20.07;70.80;99818.38;5045881;28;20562;-83
2022/08/03 02:48:48;;;;;;;6.57;2.00;;;;;;;20.11;70.25;99818.56;5045724;28;20039;-81
2022/08/03 02:51:17;;;;;;;6.80;2.40;;;;;;;20.05;70.87;99815.13;5045923;28;20465;-81
2022/08/03 02:53:44;;;;;;;8.68;3.65;;;;;;;20.06;70.81;99816.75;5046846;28;20033;-87
2022/08/03 02:56:11;;;;;;;5.22;2.28;;;;;;;20.01;70.56;99820.50;5047592;28;20471;-87
2022/08/03 02:58:39;;;;;;;7.93;2.50;;;;;;;20.04;71.15;99810.72;5047084;28;20032;-81
2022/08/03 03:01:05;;;;;;;8.55;2.53;;;;;;;20.06;71.18;99822.28;5046421;28;20033;-81
2022/08/03 03:03:32;;;;;;;4.88;2.00;;;;;;;20.12;70.67;99814.63;5046452;28;20031;-81
2022/08/03 03:05:58;;;;;;;6.22;2.47;;;;;;;20.20;70.90;99810.25;5046277;28;20041;-82
2022/08/03 03:08:25;;;;;;;4.85;2.22;;;;;;;20.21;70.86;99811.88;5046074;28;20195;-82
2022/08/03 03:10:51;;;;;;;5.60;1.85;;;;;;;20.20;69.79;99813.03;5045957;28;20039;-84
2022/08/03 03:13:19;;;;;;;5.95;1.73;;;;;;;20.23;70.03;99810.41;5046726;28;20403;-83
2022/08/03 03:15:46;;;;;;;5.57;2.03;;;;;;;20.39;69.57;99802.38;5046914;28;20260;-85
2022/08/03 03:18:11;;;;;;;5.63;1.95;;;;;;;20.44;69.03;99806.94;5046537;28;20032;-85
2022/08/03 03:20:39;;;;;;;3.10;1.77;;;;;;;20.53;68.57;99812.41;5046490;28;20468;-83
2022/08/03 03:23:05;;;;;;;4.18;1.83;;;;;;;20.53;66.59;99812.41;5045311;28;20025;-83
2022/08/03 03:25:32;;;;;;;4.07;1.70;;;;;;;20.59;66.27;99816.63;5046742;28;20309;-82
2022/08/03 03:27:59;;;;;;;6.53;2.75;;;;;;;20.64;66.31;99813.66;5046370;28;20029;-82
2022/08/03 03:30:25;;;;;;;3.28;1.63;;;;;;;20.79;65.91;99817.03;5045280;28;20039;-82
2022/08/03 03:32:51;;;;;;;5.53;2.28;;;;;;;20.94;65.63;99812.88;5046069;28;20032;-82
2022/08/03 03:35:17;;;;;;;6.30;2.20;;;;;;;20.97;65.22;99817.00;5046372;28;20033;-87
2022/08/03 03:37:42;;;;;;;9.82;2.60;;;;;;;21.05;64.96;99805.00;5046134;28;20037;-87
2022/08/03 03:40:08;;;;;;;5.55;1.60;;;;;;;21.05;64.80;99816.09;5047097;28;20037;-80
2022/08/03 03:42:34;;;;;;;6.45;2.78;;;;;;;21.04;64.81;99819.22;5045017;28;20560;-80
2022/08/03 03:45:03;;;;;;;5.57;1.80;;;;;;;21.08;65.30;99815.44;5045699;28;20029;-83
2022/08/03 03:47:28;;;;;;;7.13;2.78;;;;;;;21.10;66.36;99815.91;5045633;28;20036;-81
2022/08/03 03:49:55;;;;;;;5.13;2.22;;;;;;;21.02;67.38;99816.78;5045124;28;20438;-80
2022/08/03 03:52:20;;;;;;;9.07;2.28;;;;;;;20.93;67.89;99819.56;5045431;28;20430;-81
2022/08/03 03:54:46;;;;;;;3.70;2.08;;;;;;;20.82;68.48;99818.31;5045593;28;20039;-81
2022/08/03 03:57:11;;;;;;;6.37;2.13;;;;;;;20.72;69.12;99822.28;5046024;28;20043;-84
2022/08/03 03:59:41;;;;;;;4.97;2.00;;;;;;;20.57;69.31;99813.38;5048279;28;20327;-84
2022/08/03 04:02:07;;;;;;;7.75;2.35;;;;;;;20.49;69.21;99811.44;5050212;28;20554;-87
2022/08/03 04:12:57;;;;;;;3.92;2.17;;;;;;;20.33;70.13;99820.31;5049602;28;20159;-82
2022/08/03 04:15:24;;;;;;;6.68;1.80;;;;;;;20.36;69.58;99814.09;5049700;28;20044;-87
2022/08/03 04:17:52;;;;;;;4.80;1.75;;;;;;;20.45;69.02;99813.25;5050458;28;20033;-87
2022/08/03 04:20:20;;;;;;;3.47;2.15;;;;;;;20.57;68.58;99815.31;5049901;28;20100;-84
2022/08/03 04:22:48;;;;;;;13.10;2.22;;;;;;;20.63;66.89;99817.59;5050008;28;20029;-84
2022/08/03 04:25:18;;;;;;;5.80;2.00;;;;;;;20.71;66.93;99810.38;5049961;28;20033;-82
2022/08/03 04:27:45;;;;;;;9.07;2.33;;;;;;;20.84;66.59;99822.41;5049441;28;20099;-82
2022/08/03 04:30:11;;;;;;;6.80;2.13;;;;;;;20.90;65.92;99819.41;5048579;28;20463;-81
2022/08/03 04:32:38;;;;;;;3.42;1.65;;;;;;;20.93;65.55;99813.22;5048839;28;20064;-82
2022/08/03 04:35:05;;;;;;;3.55;1.60;;;;;;;20.99;65.19;99823.78;5047591;28;20029;-83
2022/08/03 04:37:46;;;;;;;8.80;3.40;;;;;;;21.07;66.16;99818.56;5048605;28;20029;-82
2022/08/03 04:40:26;;;;;;;4.40;2.45;;;;;;;20.97;65.77;99825.31;5049382;28;20068;-83
2022/08/03 04:42:54;;;;;;;3.58;1.30;;;;;;;20.99;66.79;99828.56;5049387;28;20514;-83
2022/08/03 04:45:20;;;;;;;4.68;2.03;;;;;;;20.98;67.22;99835.22;5049733;28;20040;-81
2022/08/03 04:47:46;;;;;;;10.50;2.05;;;;;;;20.98;67.12;99835.22;5047824;28;20024;-79
2022/08/03 04:50:12;;;;;;;4.68;2.10;;;;;;;20.99;67.33;99828.56;5047577;28;20060;-81
2022/08/03 04:52:38;;;;;;;7.72;3.38;;;;;;;20.98;67.66;99827.72;5048209;28;20102;-79
2022/08/03 04:55:03;;;;;;;5.22;2.08;;;;;;;20.98;67.54;99833.28;5048424;28;20443;-84
2022/08/03 04:57:29;;;;;;;6.65;2.17;;;;;;;21.03;67.34;99823.16;5049419;28;20033;-85
2022/08/03 04:59:55;;;;;;;6.05;2.60;;;;;;;21.04;67.24;99828.34;5048907;28;20090;-85
2022/08/03 05:02:20;;;;;;;5.70;2.20;;;;;;;21.05;67.55;99829.94;5049969;28;20151;-85
2022/08/03 05:04:46;;;;;;;14.85;2.30;;;;;;;21.05;67.72;99827.19;5047859;28;20045;-85
2022/08/03 05:07:12;;;;;;;5.30;2.00;;;;;;;21.00;65.87;99827.38;5048427;28;20052;-81
2022/08/03 05:09:38;;;;;;;6.07;2.20;;;;;;;21.11;66.76;99825.06;5047076;28;20036;-81
2022/08/03 05:12:04;;;;;;;8.85;2.45;;;;;;;;;;5047469;28;20448;-80
2022/08/03 05:14:29;;;;;;;5.60;2.33;;;;;;;21.15;66.50;99830.72;5047472;28;20163;-79
2022/08/03 05:16:54;;;;;;;8.73;2.83;;;;;;;21.20;67.37;99828.56;5047552;28;20059;-81
2022/08/03 05:19:19;;;;;;;6.73;2.13;;;;;;;21.22;67.82;99831.00;5047106;28;20364;-80
2022/08/03 05:21:45;;;;;;;4.37;2.20;;;;;;;21.14;67.28;99829.91;5046738;28;20270;-81
2022/08/03 05:24:10;;;;;;;7.80;2.50;;;;;;;21.19;67.20;99838.06;5048069;28;20254;-81
2022/08/03 05:26:36;;;;;;;7.17;2.17;;;;;;;21.10;65.71;99837.28;5048007;28;20029;-82
2022/08/03 05:29:01;;;;;;;5.38;2.30;;;;;;;21.10;65.76;99838.09;5046228;28;20273;-82
2022/08/03 05:31:26;;;;;;;13.75;2.72;;;;;;;21.09;65.78;99833.69;5047113;28;20033;-84
2022/08/03 05:33:52;;;;;;;7.00;1.90;;;;;;;21.28;65.64;99826.06;5048303;28;20020;-83
2022/08/03 05:36:17;;;;;;;4.38;2.50;;;;;;;21.19;65.79;99829.72;5047927;28;20025;-81
2022/08/03 05:38:43;;;;;;;10.38;2.83;;;;;;;21.39;65.37;99834.81;5048012;28;20033;-82
2022/08/03 05:41:08;;;;;;;7.47;2.10;;;;;;;21.39;65.58;99840.34;5047987;28;20029;-84
2022/08/03 05:43:33;;;;;;;15.63;2.23;;;;;;;21.25;65.69;99835.88;5049132;28;20033;-85
2022/08/03 05:45:59;;;;;;;4.33;1.60;;;;;;;21.34;65.37;99830.28;5048335;28;20267;-80
2022/08/03 05:48:25;;;;;;;4.50;2.25;;;;;;;21.39;65.01;99837.59;5046810;28;20265;-80
2022/08/03 05:50:50;;;;;;;5.82;2.33;;;;;;;21.56;65.06;99840.22;5047098;28;20036;-82
2022/08/03 05:53:16;;;;;;;6.70;2.28;;;;;;;21.52;65.10;99842.03;5047379;28;20029;-81
2022/08/03 05:55:41;;;;;;;7.80;1.70;;;;;;;21.48;64.87;99843.88;5047830;28;20074;-84
2022/08/03 05:58:06;;;;;;;4.22;1.95;;;;;;;21.54;65.04;99848.06;5048636;28;20037;-84
2022/08/03 06:00:32;;;;;;;4.88;1.80;;;;;;;21.53;64.44;99843.69;5046924;28;20411;-81
2022/08/03 06:02:57;;;;;;;6.18;2.30;;;;;;;21.53;64.87;99846.47;5047104;28;20037;-81
2022/08/03 06:05:22;;;;;;;7.78;1.95;;;;;;;21.57;64.48;99852.13;5047644;28;20543;-85
2022/08/03 06:07:48;;;;;;;4.57;2.05;;;;;;;21.58;64.80;99851.78;5048395;28;20064;-84
2022/08/03 06:10:13;;;;;;;7.80;2.03;;;;;;;21.61;64.58;99843.94;5046477;28;20126;-81
2022/08/03 06:12:40;;;;;;;7.35;2.65;;;;;;;21.61;64.70;99855.03;5046748;28;20100;-81
2022/08/03 06:15:06;;;;;;;4.65;2.47;;;;;;;21.72;64.58;99841.59;5047519;28;20032;-84
2022/08/03 06:17:31;;;;;;;5.18;2.17;;;;;;;21.68;64.53;99847.00;5046189;28;20056;-84
2022/08/03 06:19:56;;;;;;;9.15;2.72;;;;;;;21.71;64.15;99843.53;5046844;28;20091;-84
2022/08/03 06:22:22;;;;;;;6.65;1.90;;;;;;;21.69;64.89;99852.22;5046590;28;20024;-84
2022/08/03 06:24:47;;;;;;;4.85;2.10;;;;;;;21.69;64.29;99843.06;5047650;28;20025;-84
2022/08/03 06:27:12;;;;;;;8.03;2.10;;;;;;;21.73;64.71;99854.28;5047102;28;20039;-87
2022/08/03 06:29:38;;;;;;;4.47;2.30;;;;;;;21.74;64.78;99853.97;5046902;28;20760;-87
2022/08/03 06:32:03;;;;;;;3.50;1.97;;;;;;;21.88;64.43;99850.94;5048096;28;20037;-89
2022/08/03 06:34:29;;;;;;;5.80;1.80;;;;;;;22.06;63.92;99847.19;5047853;28;20262;-89
2022/08/03 06:36:54;;;;;;;3.67;1.80;;;;;;;22.02;64.33;99845.09;5045474;28;20032;-81
2022/08/03 06:39:20;;;;;;;6.18;2.13;;;;;;;22.04;65.16;99841.97;5045572;28;20620;-82
2022/08/03 06:41:46;;;;;;;4.53;2.40;;;;;;;22.06;65.19;99844.41;5045939;28;20025;-81
2022/08/03 06:44:11;;;;;;;22.67;3.10;;;;;;;22.11;64.57;99841.44;5046056;28;20033;-81
2022/08/03 06:46:37;;;;;;;3.53;2.08;;;;;;;22.18;63.71;99847.22;5046757;28;20039;-84
2022/08/03 06:49:02;;;;;;;3.92;1.98;;;;;;;22.26;63.21;99853.84;5046747;28;20032;-83
2022/08/03 06:51:28;;;;;;;5.03;2.88;;;;;;;22.16;63.51;99853.13;5047541;28;20037;-87
2022/08/03 06:53:53;;;;;;;4.22;2.00;;;;;;;22.18;63.63;99855.56;5046463;28;20037;-87
2022/08/03 06:56:19;;;;;;;4.88;2.85;;;;;;;22.25;63.64;99853.03;5047125;28;20041;-83
2022/08/03 06:58:45;;;;;;;3.67;2.25;;;;;;;22.23;63.99;99844.22;5046126;28;20044;-83
2022/08/03 07:01:11;;;;;;;7.72;2.35;;;;;;;22.20;64.25;99849.66;5041675;28;20356;-81
2022/08/03 07:03:36;;;;;;;5.53;2.57;;;;;;;22.32;63.71;99857.22;5024326;28;20025;-81
2022/08/03 07:06:01;;;;;;;7.85;2.00;;;;;;;22.37;63.54;99857.00;5026318;28;20266;-81
2022/08/03 07:08:26;;;;;;;6.80;2.93;;;;;;;22.39;63.29;99855.50;5026291;28;20118;-81
2022/08/03 07:10:52;;;;;;;7.00;2.80;;;;;;;22.43;62.90;99847.31;5044854;28;20257;-87
2022/08/03 07:13:17;;;;;;;6.45;2.20;;;;;;;22.56;62.37;99852.84;5046726;28;20564;-87
2022/08/03 07:15:42;;;;;;;6.63;2.23;;;;;;;22.59;61.76;99857.75;5047317;28;20124;-82
2022/08/03 07:18:08;;;;;;;5.32;2.95;;;;;;;22.58;60.99;99859.69;5044810;28;20110;-82
2022/08/03 07:20:33;;;;;;;6.70;2.55;;;;;;;22.69;61.28;99865.66;5045498;28;20268;-81
2022/08/03 07:22:58;;;;;;;7.32;3.00;;;;;;;22.72;61.00;99869.72;5045217;28;20041;-81
2022/08/03 07:25:24;;;;;;;4.95;2.38;;;;;;;22.74;60.84;99868.19;5045799;28;20029;-86
2022/08/03 07:27:49;;;;;;;5.28;2.50;;;;;;;22.97;60.57;99864.97;5047252;28;20086;-86
2022/08/03 07:30:15;;;;;;;4.60;2.47;;;;;;;22.92;60.29;99867.19;5046557;28;20151;-83
2022/08/03 07:32:41;;;;;;;4.03;2.08;;;;;;;22.98;60.49;99869.38;5045845;28;20028;-82
2022/08/03 07:35:08;;;;;;;6.20;2.10;;;;;;;23.01;60.74;99870.66;5046031;28;20418;-84
2022/08/03 07:37:34;;;;;;;5.15;2.55;;;;;;;22.98;60.64;99868.59;5046383;28;20032;-83
2022/08/03 07:40:00;;;;;;;6.95;2.78;;;;;;;22.92;61.17;99872.75;5045971;28;20041;-84
2022/08/03 07:42:27;;;;;;;8.05;1.98;;;;;;;23.07;59.82;99874.00;5043590;28;20493;-81
2022/08/03 07:44:52;;;;;;;5.80;3.03;;;;;;;23.07;59.99;99871.22;5045572;28;20029;-81
2022/08/03 07:47:23;;;;;;;5.68;2.90;;;;;;;23.09;59.92;99877.25;5045150;28;20036;-81
2022/08/03 07:49:49;;;;;;;5.90;1.60;;;;;;;23.29;59.18;99874.72;5044615;28;20580;-80
2022/08/03 07:54:58;;;;;;;4.72;2.40;;;;;;;23.28;59.09;99868.34;5046550;28;20044;-83
2022/08/03 07:57:24;;;;;;;6.35;2.08;;;;;;;23.38;59.65;99866.22;5044775;28;20041;-81
2022/08/03 07:59:49;;;;;;;6.97;2.60;;;;;;;23.32;59.96;99862.88;5044485;28;20037;-81
2022/08/03 08:02:15;;;;;;;6.75;2.17;;;;;;;23.35;59.17;99864.16;5046093;28;20054;-83
2022/08/03 08:04:40;;;;;;;4.50;2.40;;;;;;;23.59;57.66;99870.84;5045701;28;20040;-83
2022/08/03 08:07:06;;;;;;;4.10;1.95;;;;;;;23.47;58.75;99874.47;5044402;28;20278;-82
2022/08/03 08:09:31;;;;;;;6.00;2.08;;;;;;;23.65;58.29;99866.66;5044335;28;20411;-81
2022/08/03 08:11:56;;;;;;;4.95;2.22;;;;;;;24.04;57.53;99862.59;5046671;28;20029;-88
2022/08/03 08:14:22;;;;;;;8.18;2.30;;;;;;;23.98;57.28;99865.63;5046807;28;20106;-89
2022/08/03 08:16:48;;;;;;;7.50;2.20;;;;;;;24.08;56.75;99858.72;5046946;28;20411;-89
2022/08/03 08:19:15;;;;;;;4.85;2.47;;;;;;;24.08;56.86;99860.72;5046456;28;20313;-89
2022/08/03 08:21:41;;;;;;;4.82;2.05;;;;;;;24.09;55.95;99865.94;5046940;28;20684;-83
2022/08/03 08:24:06;;;;;;;4.82;2.10;;;;;;;24.31;55.91;99860.97;5045921;28;20033;-83
2022/08/03 08:26:32;;;;;;;5.15;1.80;;;;;;;24.39;55.05;99855.59;5046475;28;20032;-89
2022/08/03 08:28:57;;;;;;;6.40;3.03;;;;;;;24.12;55.96;99859.63;5046178;28;20064;-88
2022/08/03 08:31:22;;;;;;;7.13;2.93;;;;;;;23.94;56.79;99861.91;5046640;28;20397;-83
2022/08/03 08:33:47;;;;;;;6.80;2.92;;;;;;;24.07;55.61;99868.25;5045717;28;20262;-83
2022/08/03 08:36:13;;;;;;;4.95;1.98;;;;;;;24.29;54.22;99857.72;5044996;28;20029;-80
2022/08/03 08:38:41;;;;;;;6.47;1.92;;;;;;;24.47;54.09;99857.38;5044902;28;20063;-80
2022/08/03 08:41:08;;;;;;;5.10;2.17;;;;;;;24.54;53.62;99862.34;5044613;28;20033;-80
2022/08/03 08:43:33;;;;;;;5.32;2.33;;;;;;;24.61;52.95;99859.75;5044723;28;20075;-80
2022/08/03 08:45:59;;;;;;;5.60;2.37;;;;;;;24.47;53.64;99857.38;5047616;28;20072;-93
2022/08/03 08:48:25;;;;;;;4.93;1.77;;;;;;;24.43;53.92;99859.28;5048197;28;20366;-88
2022/08/03 08:50:55;;;;;;;6.15;2.83;;;;;;;24.50;53.45;99856.69;5049304;28;20036;-83
2022/08/03 08:53:21;;;;;;;6.00;2.00;;;;;;;24.59;53.97;99860.09;5048742;28;20128;-83
2022/08/03 08:55:48;;;;;;;6.38;3.10;;;;;;;24.81;53.39;99857.88;5049108;28;20129;-87
2022/08/03 08:58:16;;;;;;;6.85;2.00;;;;;;;25.02;53.08;99859.56;5050474;28;20052;-87
2022/08/03 09:00:44;;;;;;;6.72;2.75;;;;;;;25.31;52.30;99859.44;5048193;28;20037;-79
2022/08/03 09:03:10;;;;;;;1.98;1.23;;;;;;;25.06;53.11;99862.44;5047052;28;20137;-79
2022/08/03 09:05:37;;;;;;;5.50;2.55;;;;;;;25.04;52.85;99865.59;5045228;28;20029;-81
2022/08/03 09:08:04;;;;;;;4.45;3.08;;;;;;;25.40;52.25;99862.03;5043347;28;20043;-80
2022/08/03 09:10:30;;;;;;;6.18;2.40;;;;;;;25.32;52.06;99857.47;5044421;28;20044;-81
2022/08/03 09:12:55;;;;;;;4.57;2.35;;;;;;;25.76;51.29;99860.03;5045883;28;20057;-81
2022/08/03 09:15:30;;;;;;;4.57;2.17;;;;;;;25.53;52.14;99859.91;5046088;28;20036;-83
2022/08/03 09:17:57;;;;;;;6.45;2.08;;;;;;;25.63;51.38;99864.91;5046574;28;20282;-83
2022/08/03 09:20:26;;;;;;;10.90;2.95;;;;;;;25.59;51.01;99860.44;5045771;28;20036;-81
2022/08/03 09:23:09;;;;;;;4.95;2.95;;;;;;;25.53;51.93;99869.09;5047016;28;20521;-81
2022/08/03 09:25:38;;;;;;;;;;;;;;;26.39;49.28;99862.06;5047495;28;20483;-83
2022/08/03 09:28:15;;;;;;;4.85;2.47;;;;;;;25.80;50.98;99857.31;5047555;28;20027;-81
2022/08/03 09:30:56;;;;;;;2.92;1.50;;;;;;;26.35;49.56;99858.34;5046443;28;20090;-85
2022/08/03 09:33:23;;;;;;;5.88;2.78;;;;;;;26.17;50.14;99858.03;5048017;28;20033;-85
2022/08/03 09:35:48;;;;;;;4.40;2.28;;;;;;;26.14;50.71;99850.41;5047428;28;20033;-84
2022/08/03 09:38:27;;;;;;;4.93;1.98;;;;;;;26.31;49.47;99868.66;5048257;28;20475;-84
2022/08/03 09:40:53;;;;;;;3.10;1.92;;;;;;;26.13;49.99;99852.38;5033735;28;20045;-80
2022/08/03 09:43:19;;;;;;;6.50;2.28;;;;;;;26.23;49.32;99857.38;5044923;28;20127;-80
2022/08/03 09:45:44;;;;;;;4.00;1.65;;;;;;;26.23;49.89;99857.38;5047747;28;20111;-87
2022/08/03 09:48:27;;;;;;;7.13;2.92;;;;;;;26.65;47.53;99854.09;5048776;28;20033;-86
2022/08/03 09:50:54;;;;;;;4.25;1.67;;;;;;;26.99;47.09;99856.25;5034451;28;20493;-80
2022/08/03 09:53:20;;;;;;;4.63;1.73;;;;;;;26.89;47.67;99847.31;5026946;28;20041;-80
2022/08/03 09:55:57;;;;;;;4.57;1.83;;;;;;;26.88;47.90;99856.09;5027887;28;20495;-87
2022/08/03 09:58:24;;;;;;;4.88;1.58;;;;;;;26.95;47.44;99856.19;5029233;28;20061;-86
2022/08/03 10:01:02;;;;;;;2.95;1.73;;;;;;;26.87;47.83;99855.25;5045401;28;20083;-81
2022/08/03 10:03:30;;;;;;;3.78;1.80;;;;;;;26.88;47.42;99856.91;5046480;28;20050;-81
2022/08/03 10:05:55;;;;;;;7.00;2.53;;;;;;;27.20;46.21;99861.38;5046987;28;20032;-80
2022/08/03 10:08:21;;;;;;;6.95;2.33;;;;;;;27.34;44.72;99860.78;5046606;28;20033;-81
2022/08/03 10:10:48;;;;;;;4.20;2.03;;;;;;;27.35;44.98;99870.81;5034077;28;20033;-83
2022/08/03 10:13:16;;;;;;;5.57;1.38;;;;;;;27.13;45.29;99859.28;5043384;28;20072;-82
2022/08/03 10:15:41;;;;;;;12.18;2.10;;;;;;;27.43;45.17;99862.50;5046799;28;20033;-81
2022/08/03 10:18:07;;;;;;;5.10;1.50;;;;;;;27.33;45.96;99852.78;5045946;28;20031;-80
2022/08/03 10:20:50;;;;;;;4.95;1.88;;;;;;;27.32;46.04;99862.38;5045374;28;20476;-81
2022/08/03 10:23:16;;;;;;;5.18;1.40;;;;;;;27.59;44.85;99863.13;5046736;28;20037;-81
2022/08/03 10:25:46;;;;;;;2.65;1.35;;;;;;;27.54;44.45;99863.44;5047031;28;20044;-87
2022/08/03 10:28:17;;;;;;;7.90;2.00;;;;;;;27.61;44.87;99852.38;5048231;28;20056;-87
2022/08/03 10:30:46;;;;;;;2.47;1.40;;;;;;;27.58;44.51;99855.91;5046645;28;20060;-84
2022/08/03 10:33:17;;;;;;;5.10;1.33;;;;;;;28.01;43.25;99849.25;5046251;28;20036;-84
2022/08/03 10:35:47;;;;;;;4.30;2.00;;;;;;;27.84;44.45;99848.69;5047483;28;20032;-81
2022/08/03 10:38:18;;;;;;;7.00;1.65;;;;;;;27.56;45.60;99840.69;5045984;28;20125;-81
2022/08/03 10:40:43;;;;;;;12.18;2.05;;;;;;;27.67;45.15;99843.63;5044690;28;20632;-79
2022/08/03 10:43:17;;;;;;;7.47;2.13;;;;;;;27.96;44.17;99838.41;5045197;28;20119;-79
2022/08/03 10:45:44;;;;;;;5.95;2.35;;;;;;;27.97;44.19;99842.78;5046176;28;20391;-82
2022/08/03 10:48:11;;;;;;;10.32;1.80;;;;;;;28.14;43.98;99843.38;5045895;28;20037;-82
2022/08/03 10:50:37;;;;;;;13.68;2.35;;;;;;;28.07;43.71;99844.91;5045241;28;20059;-81
2022/08/03 10:53:07;;;;;;;3.83;1.80;;;;;;;27.69;44.58;99838.44;5045911;28;20499;-81
2022/08/03 10:58:48;;;;;;;4.25;2.30;;;;;;;27.91;44.73;99827.53;5046575;28;20494;-82
2022/08/03 11:01:15;;;;;;;5.75;2.03;;;;;;;28.08;43.98;99821.31;5042687;28;20124;-83
2022/08/03 11:03:56;;;;;;;5.80;2.13;;;;;;;28.02;43.96;99825.66;5046082;28;20039;-83
2022/08/03 11:06:24;;;;;;;7.68;2.33;;;;;;;28.17;43.44;99820.22;5046741;28;20543;-88
2022/08/03 11:09:09;;;;;;;19.17;2.63;;;;;;;28.26;43.92;99814.28;5044478;28;20031;-88
2022/08/03 11:11:36;;;;;;;7.18;2.25;;;;;;;28.13;43.96;99814.56;5040560;28;20044;-84
2022/08/03 11:14:07;;;;;;;8.30;2.42;;;;;;;28.52;43.04;99807.72;5046679;28;20052;-84
2022/08/03 11:16:48;;;;;;;4.90;2.40;;;;;;;28.24;43.85;99808.25;5046049;28;20390;-80
2022/08/03 11:19:21;;;;;;;7.45;1.98;;;;;;;28.62;42.72;99811.81;5037957;28;20033;-78
2022/08/03 11:21:52;;;;;;;9.60;2.22;;;;;;;28.43;43.46;99816.50;5046822;28;20032;-88
2022/08/03 11:24:35;;;;;;;5.00;2.28;;;;;;;28.57;42.54;99814.19;5047277;28;20040;-88
2022/08/03 11:27:19;;;;;;;;;;;;;;;28.80;41.85;99805.56;5046154;28;20052;-80
2022/08/03 11:30:06;;;;;;;6.78;2.03;;;;;;;28.84;42.43;99811.19;5043239;28;19917;-79
2022/08/03 11:32:38;;;;;;;8.75;2.17;;;;;;;28.48;43.17;99800.47;5047123;28;20468;-88
2022/08/03 11:35:06;;;;;;;6.57;1.93;;;;;;;28.35;43.79;99808.38;5047114;28;20037;-82
2022/08/03 11:37:32;;;;;;;7.47;1.98;;;;;;;28.71;43.14;99805.88;5045699;28;20103;-82
2022/08/03 11:39:58;;;;;;;5.60;1.50;;;;;;;28.55;43.45;99801.38;5043992;28;20120;-82
2022/08/03 11:42:23;;;;;;;7.10;1.58;;;;;;;28.54;43.26;99810.16;5045545;28;20095;-82
2022/08/03 11:44:49;;;;;;;8.53;1.70;;;;;;;28.42;44.37;99814.88;5044104;28;20063;-82
2022/08/03 11:47:16;;;;;;;6.65;1.35;;;;;;;28.79;43.29;99806.75;5047402;28;20269;-88
2022/08/03 11:49:57;;;;;;;18.80;2.03;;;;;;;29.57;41.92;99811.63;5046295;28;20083;-88
2022/08/03 11:52:23;;;;;;;4.35;1.20;;;;;;;29.22;42.19;99809.06;5046904;28;20483;-87